sensor_id;sensor_type;location;lat;lon;timestamp;temperature;humidity
37910;DHT22;23741;49.446;8.754;2022-12-01T00:00:25;11.20;67.20
37910;DHT22;23741;49.446;8.754;2022-12-01T00:02:27;11.20;67.30
37910;DHT22;23741;49.446;8.754;2022-12-01T00:04:29;11.20;67.20
37910;DHT22;23741;49.446;8.754;2022-12-01T00:06:31;11.20;67.20
37910;DHT22;23741;49.446;8.754;2022-12-01T00:08:33;11.30;67.10
37910;DHT22;23741;49.446;8.754;2022-12-01T00:10:35;11.20;66.80
37910;DHT22;23741;49.446;8.754;2022-12-01T00:12:36;11.20;66.50
37910;DHT22;23741;49.446;8.754;2022-12-01T00:14:43;11.20;66.70
37910;DHT22;23741;49.446;8.754;2022-12-01T00:16:55;11.20;66.60
37910;DHT22;23741;49.446;8.754;2022-12-01T00:18:57;11.20;66.70
37910;DHT22;23741;49.446;8.754;2022-12-01T00:20:59;11.20;66.70
37910;DHT22;23741;49.446;8.754;2022-12-01T00:23:00;11.30;66.60
37910;DHT22;23741;49.446;8.754;2022-12-01T00:25:03;11.20;66.60
37910;DHT22;23741;49.446;8.754;2022-12-01T00:27:04;11.20;66.80
37910;DHT22;23741;49.446;8.754;2022-12-01T00:29:07;11.20;66.80
37910;DHT22;23741;49.446;8.754;2022-12-01T00:31:09;11.20;66.50
37910;DHT22;23741;49.446;8.754;2022-12-01T00:33:11;11.20;66.60
37910;DHT22;23741;49.446;8.754;2022-12-01T00:35:13;11.20;66.50
37910;DHT22;23741;49.446;8.754;2022-12-01T00:37:14;11.10;66.60
37910;DHT22;23741;49.446;8.754;2022-12-01T00:39:16;11.10;66.70
37910;DHT22;23741;49.446;8.754;2022-12-01T00:41:18;11.20;67.60
37910;DHT22;23741;49.446;8.754;2022-12-01T00:43:20;11.10;66.80
37910;DHT22;23741;49.446;8.754;2022-12-01T00:45:22;11.10;67.00
37910;DHT22;23741;49.446;8.754;2022-12-01T00:47:23;11.10;67.00
37910;DHT22;23741;49.446;8.754;2022-12-01T00:49:25;11.10;67.00
37910;DHT22;23741;49.446;8.754;2022-12-01T00:51:27;11.10;67.10
37910;DHT22;23741;49.446;8.754;2022-12-01T00:53:29;11.10;67.00
37910;DHT22;23741;49.446;8.754;2022-12-01T00:55:30;11.10;67.00
37910;DHT22;23741;49.446;8.754;2022-12-01T00:57:32;11.10;67.10
37910;DHT22;23741;49.446;8.754;2022-12-01T00:59:34;11.10;68.00
37910;DHT22;23741;49.446;8.754;2022-12-01T01:01:36;11.20;67.20
37910;DHT22;23741;49.446;8.754;2022-12-01T01:03:38;11.10;67.00
37910;DHT22;23741;49.446;8.754;2022-12-01T01:05:40;11.20;67.20
37910;DHT22;23741;49.446;8.754;2022-12-01T01:07:42;11.10;67.20
37910;DHT22;23741;49.446;8.754;2022-12-01T01:09:44;11.20;67.20
37910;DHT22;23741;49.446;8.754;2022-12-01T01:11:45;11.20;67.20
37910;DHT22;23741;49.446;8.754;2022-12-01T01:13:47;11.10;67.00
37910;DHT22;23741;49.446;8.754;2022-12-01T01:15:59;11.10;66.80
37910;DHT22;23741;49.446;8.754;2022-12-01T01:18:01;11.10;66.70
37910;DHT22;23741;49.446;8.754;2022-12-01T01:20:03;11.10;66.70
37910;DHT22;23741;49.446;8.754;2022-12-01T01:22:07;11.10;66.70
37910;DHT22;23741;49.446;8.754;2022-12-01T01:24:09;11.10;66.90
37910;DHT22;23741;49.446;8.754;2022-12-01T01:26:31;11.10;67.00
37910;DHT22;23741;49.446;8.754;2022-12-01T01:28:32;11.10;66.90
37910;DHT22;23741;49.446;8.754;2022-12-01T01:30:37;11.10;67.00
37910;DHT22;23741;49.446;8.754;2022-12-01T01:32:39;11.10;67.00
37910;DHT22;23741;49.446;8.754;2022-12-01T01:34:41;11.10;67.10
37910;DHT22;23741;49.446;8.754;2022-12-01T01:36:42;11.10;67.00
37910;DHT22;23741;49.446;8.754;2022-12-01T01:38:46;11.10;67.10
37910;DHT22;23741;49.446;8.754;2022-12-01T01:40:48;11.10;67.10
37910;DHT22;23741;49.446;8.754;2022-12-01T01:42:50;11.10;67.00
37910;DHT22;23741;49.446;8.754;2022-12-01T01:44:52;11.10;67.00
37910;DHT22;23741;49.446;8.754;2022-12-01T01:46:55;11.10;66.90
37910;DHT22;23741;49.446;8.754;2022-12-01T01:48:58;11.10;67.00
37910;DHT22;23741;49.446;8.754;2022-12-01T01:51:00;11.20;67.00
37910;DHT22;23741;49.446;8.754;2022-12-01T01:53:10;11.10;66.90
37910;DHT22;23741;49.446;8.754;2022-12-01T01:55:12;11.10;66.80
37910;DHT22;23741;49.446;8.754;2022-12-01T01:57:15;11.10;67.00
37910;DHT22;23741;49.446;8.754;2022-12-01T01:59:28;11.10;67.00
37910;DHT22;23741;49.446;8.754;2022-12-01T02:01:30;11.10;66.80
37910;DHT22;23741;49.446;8.754;2022-12-01T02:03:32;11.10;66.70
37910;DHT22;23741;49.446;8.754;2022-12-01T02:05:35;11.10;66.50
37910;DHT22;23741;49.446;8.754;2022-12-01T02:07:38;11.10;66.60
37910;DHT22;23741;49.446;8.754;2022-12-01T02:09:40;11.10;66.60
37910;DHT22;23741;49.446;8.754;2022-12-01T02:13:57;11.00;66.70
37910;DHT22;23741;49.446;8.754;2022-12-01T02:16:10;11.00;66.70
37910;DHT22;23741;49.446;8.754;2022-12-01T02:22:46;11.00;66.80
37910;DHT22;23741;49.446;8.754;2022-12-01T02:27:00;11.00;66.80
37910;DHT22;23741;49.446;8.754;2022-12-01T02:31:17;11.00;66.80
37910;DHT22;23741;49.446;8.754;2022-12-01T02:33:26;11.00;66.70
37910;DHT22;23741;49.446;8.754;2022-12-01T02:37:58;11.00;66.70
37910;DHT22;23741;49.446;8.754;2022-12-01T02:40:04;11.00;66.50
37910;DHT22;23741;49.446;8.754;2022-12-01T02:42:13;10.90;65.70
37910;DHT22;23741;49.446;8.754;2022-12-01T02:44:38;10.90;65.60
37910;DHT22;23741;49.446;8.754;2022-12-01T02:46:42;10.90;65.70
37910;DHT22;23741;49.446;8.754;2022-12-01T02:48:45;10.90;65.60
37910;DHT22;23741;49.446;8.754;2022-12-01T02:50:48;10.90;65.80
37910;DHT22;23741;49.446;8.754;2022-12-01T02:52:51;10.80;65.90
37910;DHT22;23741;49.446;8.754;2022-12-01T02:54:53;10.90;66.00
37910;DHT22;23741;49.446;8.754;2022-12-01T02:56:55;10.80;66.00
37910;DHT22;23741;49.446;8.754;2022-12-01T02:58:57;10.90;65.70
37910;DHT22;23741;49.446;8.754;2022-12-01T03:08:21;10.80;65.00
37910;DHT22;23741;49.446;8.754;2022-12-01T03:12:40;10.70;64.80
37910;DHT22;23741;49.446;8.754;2022-12-01T03:14:45;10.70;64.90
37910;DHT22;23741;49.446;8.754;2022-12-01T03:16:51;10.70;64.60
37910;DHT22;23741;49.446;8.754;2022-12-01T03:21:04;10.70;64.80
37910;DHT22;23741;49.446;8.754;2022-12-01T03:23:13;10.60;65.00
37910;DHT22;23741;49.446;8.754;2022-12-01T03:25:16;10.60;65.00
37910;DHT22;23741;49.446;8.754;2022-12-01T03:27:20;10.60;64.80
37910;DHT22;23741;49.446;8.754;2022-12-01T03:29:30;10.60;64.80
37910;DHT22;23741;49.446;8.754;2022-12-01T03:31:34;10.60;65.10
37910;DHT22;23741;49.446;8.754;2022-12-01T03:33:39;10.60;65.10
37910;DHT22;23741;49.446;8.754;2022-12-01T03:36:05;10.60;65.10
37910;DHT22;23741;49.446;8.754;2022-12-01T03:38:07;10.60;65.00
37910;DHT22;23741;49.446;8.754;2022-12-01T03:40:12;10.60;64.80
37910;DHT22;23741;49.446;8.754;2022-12-01T03:42:22;10.50;64.10
37910;DHT22;23741;49.446;8.754;2022-12-01T03:44:26;10.50;64.50
37910;DHT22;23741;49.446;8.754;2022-12-01T03:46:33;10.50;64.60
37910;DHT22;23741;49.446;8.754;2022-12-01T03:48:41;10.50;64.20
37910;DHT22;23741;49.446;8.754;2022-12-01T03:50:49;10.50;64.60
37910;DHT22;23741;49.446;8.754;2022-12-01T03:57:08;10.40;64.10
37910;DHT22;23741;49.446;8.754;2022-12-01T03:59:11;10.40;64.20
37910;DHT22;23741;49.446;8.754;2022-12-01T04:01:14;10.40;64.30
37910;DHT22;23741;49.446;8.754;2022-12-01T04:03:17;10.30;64.40
37910;DHT22;23741;49.446;8.754;2022-12-01T04:05:19;10.30;64.80
37910;DHT22;23741;49.446;8.754;2022-12-01T04:07:25;10.30;64.90
37910;DHT22;23741;49.446;8.754;2022-12-01T04:09:27;10.30;65.10
37910;DHT22;23741;49.446;8.754;2022-12-01T04:11:29;10.30;64.70
37910;DHT22;23741;49.446;8.754;2022-12-01T04:13:49;10.30;64.80
37910;DHT22;23741;49.446;8.754;2022-12-01T04:15:52;10.30;64.90
37910;DHT22;23741;49.446;8.754;2022-12-01T04:17:54;10.30;64.90
37910;DHT22;23741;49.446;8.754;2022-12-01T04:19:55;10.30;65.00
37910;DHT22;23741;49.446;8.754;2022-12-01T04:21:57;10.30;64.80
37910;DHT22;23741;49.446;8.754;2022-12-01T04:23:59;10.30;65.00
37910;DHT22;23741;49.446;8.754;2022-12-01T04:26:01;10.30;65.00
37910;DHT22;23741;49.446;8.754;2022-12-01T04:28:03;10.30;64.70
37910;DHT22;23741;49.446;8.754;2022-12-01T04:30:05;10.30;64.80
37910;DHT22;23741;49.446;8.754;2022-12-01T04:32:07;10.30;65.10
37910;DHT22;23741;49.446;8.754;2022-12-01T04:34:09;10.30;65.10
37910;DHT22;23741;49.446;8.754;2022-12-01T04:36:10;10.30;64.50
37910;DHT22;23741;49.446;8.754;2022-12-01T04:38:12;10.20;64.40
37910;DHT22;23741;49.446;8.754;2022-12-01T04:40:14;10.20;64.40
37910;DHT22;23741;49.446;8.754;2022-12-01T04:42:15;10.20;64.70
37910;DHT22;23741;49.446;8.754;2022-12-01T04:44:17;10.20;64.80
37910;DHT22;23741;49.446;8.754;2022-12-01T04:46:19;10.20;64.70
37910;DHT22;23741;49.446;8.754;2022-12-01T04:48:21;10.20;64.80
37910;DHT22;23741;49.446;8.754;2022-12-01T04:50:23;10.20;64.90
37910;DHT22;23741;49.446;8.754;2022-12-01T04:52:24;10.20;64.60
37910;DHT22;23741;49.446;8.754;2022-12-01T04:54:31;10.20;64.70
37910;DHT22;23741;49.446;8.754;2022-12-01T04:56:32;10.20;64.30
37910;DHT22;23741;49.446;8.754;2022-12-01T04:58:35;10.20;64.20
37910;DHT22;23741;49.446;8.754;2022-12-01T05:00:38;10.20;64.10
37910;DHT22;23741;49.446;8.754;2022-12-01T05:02:39;10.20;63.80
37910;DHT22;23741;49.446;8.754;2022-12-01T05:04:43;10.20;64.20
37910;DHT22;23741;49.446;8.754;2022-12-01T05:06:48;10.20;64.20
37910;DHT22;23741;49.446;8.754;2022-12-01T05:08:50;10.20;64.10
37910;DHT22;23741;49.446;8.754;2022-12-01T05:10:54;10.20;63.90
37910;DHT22;23741;49.446;8.754;2022-12-01T05:12:56;10.20;64.20
37910;DHT22;23741;49.446;8.754;2022-12-01T05:14:58;10.20;64.20
37910;DHT22;23741;49.446;8.754;2022-12-01T05:17:00;10.20;64.00
37910;DHT22;23741;49.446;8.754;2022-12-01T05:19:03;10.10;64.00
37910;DHT22;23741;49.446;8.754;2022-12-01T05:21:23;10.10;64.20
37910;DHT22;23741;49.446;8.754;2022-12-01T05:23:28;10.10;64.00
37910;DHT22;23741;49.446;8.754;2022-12-01T05:25:31;10.10;63.80
37910;DHT22;23741;49.446;8.754;2022-12-01T05:27:32;10.20;63.80
37910;DHT22;23741;49.446;8.754;2022-12-01T05:29:34;10.10;64.20
37910;DHT22;23741;49.446;8.754;2022-12-01T05:31:36;10.10;64.10
37910;DHT22;23741;49.446;8.754;2022-12-01T05:33:38;10.10;64.10
37910;DHT22;23741;49.446;8.754;2022-12-01T05:35:39;10.10;64.20
37910;DHT22;23741;49.446;8.754;2022-12-01T05:37:41;10.10;64.20
37910;DHT22;23741;49.446;8.754;2022-12-01T05:39:43;10.10;64.30
37910;DHT22;23741;49.446;8.754;2022-12-01T05:41:45;10.10;64.40
37910;DHT22;23741;49.446;8.754;2022-12-01T05:43:46;10.10;64.50
37910;DHT22;23741;49.446;8.754;2022-12-01T05:45:48;10.10;64.40
37910;DHT22;23741;49.446;8.754;2022-12-01T05:47:54;10.10;64.50
37910;DHT22;23741;49.446;8.754;2022-12-01T05:49:56;10.10;64.50
37910;DHT22;23741;49.446;8.754;2022-12-01T05:52:05;10.10;64.30
37910;DHT22;23741;49.446;8.754;2022-12-01T05:54:07;10.10;63.70
37910;DHT22;23741;49.446;8.754;2022-12-01T05:56:09;10.10;64.00
37910;DHT22;23741;49.446;8.754;2022-12-01T05:58:10;10.10;64.30
37910;DHT22;23741;49.446;8.754;2022-12-01T06:00:13;10.10;64.40
37910;DHT22;23741;49.446;8.754;2022-12-01T06:02:15;10.10;64.30
37910;DHT22;23741;49.446;8.754;2022-12-01T06:04:17;10.10;64.40
37910;DHT22;23741;49.446;8.754;2022-12-01T06:06:19;10.10;64.30
37910;DHT22;23741;49.446;8.754;2022-12-01T06:08:21;10.10;64.00
37910;DHT22;23741;49.446;8.754;2022-12-01T06:10:22;10.10;64.20
37910;DHT22;23741;49.446;8.754;2022-12-01T06:12:24;10.10;64.40
37910;DHT22;23741;49.446;8.754;2022-12-01T06:14:26;10.10;64.40
37910;DHT22;23741;49.446;8.754;2022-12-01T06:16:27;10.10;64.50
37910;DHT22;23741;49.446;8.754;2022-12-01T06:18:33;10.10;64.50
37910;DHT22;23741;49.446;8.754;2022-12-01T06:20:35;10.10;64.40
37910;DHT22;23741;49.446;8.754;2022-12-01T06:22:37;10.10;64.40
37910;DHT22;23741;49.446;8.754;2022-12-01T06:24:39;10.10;64.50
37910;DHT22;23741;49.446;8.754;2022-12-01T06:26:40;10.10;64.50
37910;DHT22;23741;49.446;8.754;2022-12-01T06:28:42;10.10;64.60
37910;DHT22;23741;49.446;8.754;2022-12-01T06:30:44;10.10;64.50
37910;DHT22;23741;49.446;8.754;2022-12-01T06:32:46;10.10;64.60
37910;DHT22;23741;49.446;8.754;2022-12-01T06:34:47;10.10;64.40
37910;DHT22;23741;49.446;8.754;2022-12-01T06:36:49;10.10;64.70
37910;DHT22;23741;49.446;8.754;2022-12-01T06:38:51;10.10;64.70
37910;DHT22;23741;49.446;8.754;2022-12-01T06:40:52;10.10;64.40
37910;DHT22;23741;49.446;8.754;2022-12-01T06:42:54;10.10;64.60
37910;DHT22;23741;49.446;8.754;2022-12-01T06:44:56;10.10;64.30
37910;DHT22;23741;49.446;8.754;2022-12-01T06:46:57;10.10;64.50
37910;DHT22;23741;49.446;8.754;2022-12-01T06:48:59;10.10;64.50
37910;DHT22;23741;49.446;8.754;2022-12-01T06:51:01;10.10;64.40
37910;DHT22;23741;49.446;8.754;2022-12-01T06:53:02;10.10;64.50
37910;DHT22;23741;49.446;8.754;2022-12-01T06:55:05;10.10;64.50
37910;DHT22;23741;49.446;8.754;2022-12-01T06:57:07;10.10;64.60
37910;DHT22;23741;49.446;8.754;2022-12-01T06:59:09;10.10;64.30
37910;DHT22;23741;49.446;8.754;2022-12-01T07:01:11;10.10;64.50
37910;DHT22;23741;49.446;8.754;2022-12-01T07:03:13;10.10;64.30
37910;DHT22;23741;49.446;8.754;2022-12-01T07:05:14;10.10;64.30
37910;DHT22;23741;49.446;8.754;2022-12-01T07:07:16;10.10;64.50
37910;DHT22;23741;49.446;8.754;2022-12-01T07:09:18;10.10;64.50
37910;DHT22;23741;49.446;8.754;2022-12-01T07:11:19;10.10;64.50
37910;DHT22;23741;49.446;8.754;2022-12-01T07:13:21;10.10;64.40
37910;DHT22;23741;49.446;8.754;2022-12-01T07:15:23;10.10;64.20
37910;DHT22;23741;49.446;8.754;2022-12-01T07:17:24;10.10;64.20
37910;DHT22;23741;49.446;8.754;2022-12-01T07:19:26;10.10;64.20
37910;DHT22;23741;49.446;8.754;2022-12-01T07:21:28;10.10;64.30
37910;DHT22;23741;49.446;8.754;2022-12-01T07:23:30;10.10;64.40
37910;DHT22;23741;49.446;8.754;2022-12-01T07:25:32;10.10;64.50
37910;DHT22;23741;49.446;8.754;2022-12-01T07:27:33;10.10;64.50
37910;DHT22;23741;49.446;8.754;2022-12-01T07:29:35;10.10;64.60
37910;DHT22;23741;49.446;8.754;2022-12-01T07:31:37;10.10;64.50
37910;DHT22;23741;49.446;8.754;2022-12-01T07:33:39;10.10;64.50
37910;DHT22;23741;49.446;8.754;2022-12-01T07:35:40;10.10;64.50
37910;DHT22;23741;49.446;8.754;2022-12-01T07:37:42;10.10;64.60
37910;DHT22;23741;49.446;8.754;2022-12-01T07:39:44;10.10;64.40
37910;DHT22;23741;49.446;8.754;2022-12-01T07:41:46;10.10;64.20
37910;DHT22;23741;49.446;8.754;2022-12-01T07:43:47;10.10;64.20
37910;DHT22;23741;49.446;8.754;2022-12-01T07:45:49;10.10;64.40
37910;DHT22;23741;49.446;8.754;2022-12-01T07:47:51;10.10;64.30
37910;DHT22;23741;49.446;8.754;2022-12-01T07:49:53;10.10;64.40
37910;DHT22;23741;49.446;8.754;2022-12-01T07:51:55;10.10;64.50
37910;DHT22;23741;49.446;8.754;2022-12-01T07:53:59;10.10;64.60
37910;DHT22;23741;49.446;8.754;2022-12-01T07:56:02;10.10;64.50
37910;DHT22;23741;49.446;8.754;2022-12-01T07:58:09;10.10;64.50
37910;DHT22;23741;49.446;8.754;2022-12-01T08:00:11;10.10;64.30
37910;DHT22;23741;49.446;8.754;2022-12-01T08:02:12;10.10;64.50
37910;DHT22;23741;49.446;8.754;2022-12-01T08:04:14;10.10;64.40
37910;DHT22;23741;49.446;8.754;2022-12-01T08:06:16;10.00;64.40
37910;DHT22;23741;49.446;8.754;2022-12-01T08:08:18;10.00;64.40
37910;DHT22;23741;49.446;8.754;2022-12-01T08:10:20;10.10;64.30
37910;DHT22;23741;49.446;8.754;2022-12-01T08:12:22;10.10;64.10
37910;DHT22;23741;49.446;8.754;2022-12-01T08:14:24;10.00;64.30
37910;DHT22;23741;49.446;8.754;2022-12-01T08:16:25;10.00;64.20
37910;DHT22;23741;49.446;8.754;2022-12-01T08:18:27;10.00;64.20
37910;DHT22;23741;49.446;8.754;2022-12-01T08:20:29;10.00;64.50
37910;DHT22;23741;49.446;8.754;2022-12-01T08:22:31;10.00;64.00
37910;DHT22;23741;49.446;8.754;2022-12-01T08:24:33;10.00;63.70
37910;DHT22;23741;49.446;8.754;2022-12-01T08:26:34;10.00;63.90
37910;DHT22;23741;49.446;8.754;2022-12-01T08:28:36;10.00;63.90
37910;DHT22;23741;49.446;8.754;2022-12-01T08:30:41;10.00;64.10
37910;DHT22;23741;49.446;8.754;2022-12-01T08:32:43;10.00;64.30
37910;DHT22;23741;49.446;8.754;2022-12-01T08:34:44;10.00;64.30
37910;DHT22;23741;49.446;8.754;2022-12-01T08:36:53;10.00;64.30
37910;DHT22;23741;49.446;8.754;2022-12-01T08:38:55;10.00;64.20
37910;DHT22;23741;49.446;8.754;2022-12-01T08:41:04;10.00;64.00
37910;DHT22;23741;49.446;8.754;2022-12-01T08:43:06;10.00;64.20
37910;DHT22;23741;49.446;8.754;2022-12-01T08:45:07;10.00;64.30
37910;DHT22;23741;49.446;8.754;2022-12-01T08:47:09;10.10;64.50
37910;DHT22;23741;49.446;8.754;2022-12-01T08:49:19;10.00;63.90
37910;DHT22;23741;49.446;8.754;2022-12-01T08:51:20;10.00;63.80
37910;DHT22;23741;49.446;8.754;2022-12-01T08:53:22;10.10;63.90
37910;DHT22;23741;49.446;8.754;2022-12-01T08:55:24;10.00;64.50
37910;DHT22;23741;49.446;8.754;2022-12-01T08:57:27;10.00;64.00
37910;DHT22;23741;49.446;8.754;2022-12-01T08:59:29;10.10;64.10
37910;DHT22;23741;49.446;8.754;2022-12-01T09:01:31;10.00;63.70
37910;DHT22;23741;49.446;8.754;2022-12-01T09:03:33;10.00;63.80
37910;DHT22;23741;49.446;8.754;2022-12-01T09:05:35;10.00;63.40
37910;DHT22;23741;49.446;8.754;2022-12-01T09:07:37;10.00;63.80
37910;DHT22;23741;49.446;8.754;2022-12-01T09:09:39;10.00;64.10
37910;DHT22;23741;49.446;8.754;2022-12-01T09:11:41;10.00;64.00
37910;DHT22;23741;49.446;8.754;2022-12-01T09:13:45;10.00;64.20
37910;DHT22;23741;49.446;8.754;2022-12-01T09:15:59;10.00;64.00
37910;DHT22;23741;49.446;8.754;2022-12-01T09:18:01;10.00;64.20
37910;DHT22;23741;49.446;8.754;2022-12-01T09:20:03;10.00;64.30
37910;DHT22;23741;49.446;8.754;2022-12-01T09:22:05;10.00;64.30
37910;DHT22;23741;49.446;8.754;2022-12-01T09:24:08;10.00;64.20
37910;DHT22;23741;49.446;8.754;2022-12-01T09:26:11;10.00;64.20
37910;DHT22;23741;49.446;8.754;2022-12-01T09:28:14;10.00;64.20
37910;DHT22;23741;49.446;8.754;2022-12-01T09:30:16;10.00;64.10
37910;DHT22;23741;49.446;8.754;2022-12-01T09:32:18;10.10;63.80
37910;DHT22;23741;49.446;8.754;2022-12-01T09:34:20;10.10;64.00
37910;DHT22;23741;49.446;8.754;2022-12-01T09:36:21;10.10;64.30
37910;DHT22;23741;49.446;8.754;2022-12-01T09:38:23;10.10;63.90
37910;DHT22;23741;49.446;8.754;2022-12-01T09:40:35;10.10;64.20
37910;DHT22;23741;49.446;8.754;2022-12-01T09:42:37;10.10;64.40
37910;DHT22;23741;49.446;8.754;2022-12-01T09:48:48;10.10;64.30
37910;DHT22;23741;49.446;8.754;2022-12-01T09:50:51;10.10;64.20
37910;DHT22;23741;49.446;8.754;2022-12-01T09:52:56;10.10;64.10
37910;DHT22;23741;49.446;8.754;2022-12-01T09:54:59;10.10;63.70
37910;DHT22;23741;49.446;8.754;2022-12-01T09:57:01;10.10;63.50
37910;DHT22;23741;49.446;8.754;2022-12-01T09:59:04;10.10;64.10
37910;DHT22;23741;49.446;8.754;2022-12-01T10:01:10;10.20;64.20
37910;DHT22;23741;49.446;8.754;2022-12-01T10:08:03;10.10;64.30
37910;DHT22;23741;49.446;8.754;2022-12-01T10:10:10;10.10;64.00
37910;DHT22;23741;49.446;8.754;2022-12-01T10:12:16;10.20;63.80
37910;DHT22;23741;49.446;8.754;2022-12-01T10:14:19;10.20;63.90
37910;DHT22;23741;49.446;8.754;2022-12-01T10:16:24;10.20;63.90
37910;DHT22;23741;49.446;8.754;2022-12-01T10:25:13;10.20;63.70
37910;DHT22;23741;49.446;8.754;2022-12-01T10:29:27;10.20;64.10
37910;DHT22;23741;49.446;8.754;2022-12-01T10:31:35;10.20;64.00
37910;DHT22;23741;49.446;8.754;2022-12-01T10:33:44;10.20;64.00
37910;DHT22;23741;49.446;8.754;2022-12-01T10:35:50;10.20;63.80
37910;DHT22;23741;49.446;8.754;2022-12-01T10:37:56;10.20;63.50
37910;DHT22;23741;49.446;8.754;2022-12-01T10:39:59;10.20;63.40
37910;DHT22;23741;49.446;8.754;2022-12-01T10:42:15;10.20;63.50
37910;DHT22;23741;49.446;8.754;2022-12-01T10:44:17;10.20;63.80
37910;DHT22;23741;49.446;8.754;2022-12-01T10:48:57;10.20;64.20
37910;DHT22;23741;49.446;8.754;2022-12-01T10:51:13;10.20;64.30
37910;DHT22;23741;49.446;8.754;2022-12-01T10:57:25;10.30;64.20
37910;DHT22;23741;49.446;8.754;2022-12-01T10:59:35;10.30;64.30
37910;DHT22;23741;49.446;8.754;2022-12-01T11:01:45;10.30;64.40
37910;DHT22;23741;49.446;8.754;2022-12-01T11:03:48;10.30;63.50
37910;DHT22;23741;49.446;8.754;2022-12-01T11:05:55;10.30;63.40
37910;DHT22;23741;49.446;8.754;2022-12-01T11:07:58;10.30;63.20
37910;DHT22;23741;49.446;8.754;2022-12-01T11:12:20;10.30;62.80
37910;DHT22;23741;49.446;8.754;2022-12-01T11:14:25;10.30;63.10
37910;DHT22;23741;49.446;8.754;2022-12-01T11:16:41;10.30;63.40
37910;DHT22;23741;49.446;8.754;2022-12-01T11:18:44;10.30;63.50
37910;DHT22;23741;49.446;8.754;2022-12-01T11:20:46;10.30;63.30
37910;DHT22;23741;49.446;8.754;2022-12-01T11:22:47;10.30;63.10
37910;DHT22;23741;49.446;8.754;2022-12-01T11:26:52;10.30;63.40
37910;DHT22;23741;49.446;8.754;2022-12-01T11:30:59;10.30;63.10
37910;DHT22;23741;49.446;8.754;2022-12-01T11:33:02;10.30;63.10
37910;DHT22;23741;49.446;8.754;2022-12-01T11:35:05;10.20;63.00
37910;DHT22;23741;49.446;8.754;2022-12-01T11:37:16;10.20;62.40
37910;DHT22;23741;49.446;8.754;2022-12-01T11:39:22;10.20;62.50
37910;DHT22;23741;49.446;8.754;2022-12-01T11:41:35;10.20;62.40
37910;DHT22;23741;49.446;8.754;2022-12-01T11:43:38;10.20;62.80
37910;DHT22;23741;49.446;8.754;2022-12-01T11:45:47;10.20;63.10
37910;DHT22;23741;49.446;8.754;2022-12-01T11:47:59;10.20;63.50
37910;DHT22;23741;49.446;8.754;2022-12-01T11:50:03;10.20;63.70
37910;DHT22;23741;49.446;8.754;2022-12-01T11:54:28;10.20;64.10
37910;DHT22;23741;49.446;8.754;2022-12-01T11:56:30;10.20;63.80
37910;DHT22;23741;49.446;8.754;2022-12-01T11:58:32;10.20;63.70
37910;DHT22;23741;49.446;8.754;2022-12-01T12:00:46;10.30;63.80
37910;DHT22;23741;49.446;8.754;2022-12-01T12:11:48;10.30;63.80
37910;DHT22;23741;49.446;8.754;2022-12-01T12:24:34;10.30;64.00
37910;DHT22;23741;49.446;8.754;2022-12-01T12:28:56;10.40;64.00
37910;DHT22;23741;49.446;8.754;2022-12-01T12:39:45;10.40;64.00
37910;DHT22;23741;49.446;8.754;2022-12-01T12:41:53;10.50;63.80
37910;DHT22;23741;49.446;8.754;2022-12-01T12:48:19;10.50;63.80
37910;DHT22;23741;49.446;8.754;2022-12-01T12:52:30;10.50;64.40
37910;DHT22;23741;49.446;8.754;2022-12-01T12:56:35;10.60;64.60
37910;DHT22;23741;49.446;8.754;2022-12-01T12:58:40;10.60;64.60
37910;DHT22;23741;49.446;8.754;2022-12-01T13:00:50;10.60;64.40
37910;DHT22;23741;49.446;8.754;2022-12-01T13:04:59;10.70;64.60
37910;DHT22;23741;49.446;8.754;2022-12-01T13:07:21;10.70;63.90
37910;DHT22;23741;49.446;8.754;2022-12-01T13:09:43;10.70;63.70
37910;DHT22;23741;49.446;8.754;2022-12-01T13:11:52;10.70;63.60
37910;DHT22;23741;49.446;8.754;2022-12-01T13:14:00;10.70;63.40
37910;DHT22;23741;49.446;8.754;2022-12-01T13:16:05;10.80;63.80
37910;DHT22;23741;49.446;8.754;2022-12-01T13:20:25;10.80;63.70
37910;DHT22;23741;49.446;8.754;2022-12-01T13:22:29;10.80;63.50
37910;DHT22;23741;49.446;8.754;2022-12-01T13:24:31;10.80;63.40
37910;DHT22;23741;49.446;8.754;2022-12-01T13:26:34;10.80;63.40
37910;DHT22;23741;49.446;8.754;2022-12-01T13:28:50;10.80;63.20
37910;DHT22;23741;49.446;8.754;2022-12-01T13:31:03;10.70;62.90
37910;DHT22;23741;49.446;8.754;2022-12-01T13:33:12;10.70;63.00
37910;DHT22;23741;49.446;8.754;2022-12-01T13:35:24;10.70;63.30
37910;DHT22;23741;49.446;8.754;2022-12-01T13:37:27;10.70;63.50
37910;DHT22;23741;49.446;8.754;2022-12-01T13:39:33;10.80;63.80
37910;DHT22;23741;49.446;8.754;2022-12-01T13:41:36;10.80;64.10
37910;DHT22;23741;49.446;8.754;2022-12-01T13:43:45;10.80;64.00
37910;DHT22;23741;49.446;8.754;2022-12-01T13:45:49;10.80;63.80
37910;DHT22;23741;49.446;8.754;2022-12-01T13:47:52;10.90;63.30
37910;DHT22;23741;49.446;8.754;2022-12-01T13:49:55;10.90;63.50
37910;DHT22;23741;49.446;8.754;2022-12-01T13:52:24;10.90;63.50
37910;DHT22;23741;49.446;8.754;2022-12-01T13:54:27;10.90;63.50
37910;DHT22;23741;49.446;8.754;2022-12-01T14:00:45;11.00;63.40
37910;DHT22;23741;49.446;8.754;2022-12-01T14:07:32;11.00;62.80
37910;DHT22;23741;49.446;8.754;2022-12-01T14:09:35;11.00;63.20
37910;DHT22;23741;49.446;8.754;2022-12-01T14:11:38;11.00;63.30
37910;DHT22;23741;49.446;8.754;2022-12-01T14:13:44;11.00;63.30
37910;DHT22;23741;49.446;8.754;2022-12-01T14:15:51;11.00;63.20
37910;DHT22;23741;49.446;8.754;2022-12-01T14:24:33;11.00;63.10
37910;DHT22;23741;49.446;8.754;2022-12-01T14:26:41;11.00;63.20
37910;DHT22;23741;49.446;8.754;2022-12-01T14:31:03;11.00;63.60
37910;DHT22;23741;49.446;8.754;2022-12-01T14:35:26;11.00;63.50
37910;DHT22;23741;49.446;8.754;2022-12-01T14:37:31;11.00;63.50
37910;DHT22;23741;49.446;8.754;2022-12-01T14:39:34;11.00;63.70
37910;DHT22;23741;49.446;8.754;2022-12-01T14:43:38;11.00;63.70
37910;DHT22;23741;49.446;8.754;2022-12-01T14:46:02;11.00;63.60
37910;DHT22;23741;49.446;8.754;2022-12-01T14:48:08;11.00;63.80
37910;DHT22;23741;49.446;8.754;2022-12-01T14:54:30;11.00;63.60
37910;DHT22;23741;49.446;8.754;2022-12-01T14:56:33;11.00;63.60
37910;DHT22;23741;49.446;8.754;2022-12-01T14:58:36;11.00;63.90
37910;DHT22;23741;49.446;8.754;2022-12-01T15:00:38;11.00;64.30
37910;DHT22;23741;49.446;8.754;2022-12-01T15:03:04;11.00;63.80
37910;DHT22;23741;49.446;8.754;2022-12-01T15:05:08;11.00;63.80
37910;DHT22;23741;49.446;8.754;2022-12-01T15:07:11;11.00;64.00
37910;DHT22;23741;49.446;8.754;2022-12-01T15:09:14;11.00;63.80
37910;DHT22;23741;49.446;8.754;2022-12-01T15:11:35;11.00;63.80
37910;DHT22;23741;49.446;8.754;2022-12-01T15:13:49;11.00;63.80
37910;DHT22;23741;49.446;8.754;2022-12-01T15:16:01;11.00;63.90